createdAt,value
2023-02-01T07:21:46.220Z,99913.22
2023-02-01T07:24:12.788Z,99918.63
2023-02-01T07:26:39.418Z,99920.94
2023-02-01T07:29:30.283Z,99932.72
2023-02-01T07:31:56.895Z,99942.56
2023-02-01T07:34:23.464Z,99943.53
2023-02-01T07:36:50.330Z,99936.66
2023-02-01T07:39:16.934Z,99941.09
2023-02-01T07:41:43.647Z,99939.41
2023-02-01T07:44:10.712Z,99948.25
2023-02-01T07:46:37.492Z,99952.47
2023-02-01T07:49:04.093Z,99950.25
2023-02-01T07:51:30.646Z,99953.34
2023-02-01T07:53:57.462Z,99950.47
2023-02-01T07:56:26.334Z,99949.78
2023-02-01T07:58:57.014Z,99946.44
2023-02-01T08:01:33.540Z,99946.03
2023-02-01T08:04:03.277Z,99950.00
2023-02-01T08:06:32.356Z,99945.72
2023-02-01T08:09:01.927Z,99949.69
2023-02-01T08:11:28.527Z,99949.09
2023-02-01T08:13:55.535Z,99953.03
2023-02-01T08:16:24.356Z,99954.16
2023-02-01T08:18:53.796Z,99954.56
2023-02-01T08:21:23.438Z,99956.28
2023-02-01T08:23:50.762Z,99964.22
2023-02-01T08:26:27.217Z,99980.84
2023-02-01T08:29:00.603Z,99989.12
2023-02-01T08:31:29.600Z,99995.41
2023-02-01T08:34:01.997Z,99988.06
2023-02-01T08:36:30.866Z,99995.66
2023-02-01T08:38:58.308Z,100005.38
2023-02-01T08:41:30.084Z,99996.31
2023-02-01T08:43:57.803Z,100002.72
2023-02-01T08:46:25.220Z,100000.94
2023-02-01T08:48:53.498Z,99996.25
2023-02-01T08:51:22.271Z,99994.75
2023-02-01T08:53:50.349Z,99995.97
2023-02-01T08:56:18.711Z,99989.03
2023-02-01T08:58:49.870Z,99990.38
2023-02-01T09:01:18.011Z,99991.81
2023-02-01T09:03:45.297Z,99994.56
2023-02-01T09:06:16.802Z,99998.16
2023-02-01T09:14:02.656Z,99991.88
2023-02-01T09:16:29.903Z,99976.34
2023-02-01T09:19:24.050Z,99979.09
2023-02-01T09:21:43.248Z,99974.12
2023-02-01T09:24:11.929Z,99970.28
2023-02-01T09:26:38.836Z,99980.94
2023-02-01T09:29:13.475Z,99963.47
2023-02-01T09:31:44.173Z,99963.16
2023-02-01T09:34:15.370Z,99965.50
2023-02-01T09:36:41.924Z,99978.41
2023-02-01T09:39:08.521Z,99981.09
2023-02-01T09:42:00.290Z,99984.31
2023-02-01T09:44:59.912Z,99984.81
2023-02-01T09:47:27.301Z,99993.06
2023-02-01T09:50:11.332Z,99994.59
2023-02-01T09:53:10.815Z,99992.34
2023-02-01T09:55:43.418Z,99978.41
2023-02-01T09:58:18.714Z,99959.38
2023-02-01T10:00:53.340Z,99968.09
2023-02-01T10:03:21.431Z,99970.91
2023-02-01T10:05:54.241Z,99981.97
2023-02-01T10:08:45.947Z,99964.38
2023-02-01T10:11:18.680Z,99955.50
2023-02-01T10:14:08.191Z,99954.41
2023-02-01T10:16:41.011Z,99954.66
2023-02-01T10:19:28.662Z,99936.28
2023-02-01T10:22:03.852Z,99925.25
2023-02-01T10:24:37.365Z,99920.56
2023-02-01T10:27:26.705Z,99914.19
2023-02-01T10:29:59.461Z,99908.72
2023-02-01T10:32:32.092Z,99912.78
2023-02-01T10:35:22.278Z,99899.03
2023-02-01T10:37:48.945Z,99907.34
2023-02-01T10:40:25.813Z,99905.72
2023-02-01T10:43:02.884Z,99901.75
2023-02-01T10:45:31.625Z,99896.31
2023-02-01T10:48:00.902Z,99887.75
2023-02-01T10:50:50.289Z,99906.44
2023-02-01T10:53:22.803Z,99910.41
2023-02-01T10:55:52.838Z,99910.94
2023-02-01T10:58:26.559Z,99897.34
2023-02-01T11:01:08.421Z,99894.06
2023-02-01T11:03:39.872Z,99899.25
2023-02-01T11:06:18.125Z,99901.97
2023-02-01T11:08:53.954Z,99891.66
2023-02-01T11:11:21.684Z,99887.25
2023-02-01T11:14:11.724Z,99880.72
2023-02-01T11:16:39.902Z,99876.94
2023-02-01T11:19:07.114Z,99878.53
2023-02-01T11:21:38.780Z,99861.88
2023-02-01T11:24:10.103Z,99861.56
2023-02-01T11:26:42.395Z,99862.03
2023-02-01T11:29:15.635Z,99863.37
2023-02-01T11:31:44.033Z,99857.44
2023-02-01T11:34:21.973Z,99851.13
2023-02-01T11:36:50.699Z,99849.00
2023-02-01T11:39:27.013Z,99841.00
2023-02-01T11:42:18.414Z,99847.06
2023-02-01T11:44:47.314Z,99842.03
2023-02-01T11:47:26.674Z,99831.19
2023-02-01T11:49:58.710Z,99827.91
2023-02-01T11:52:55.350Z,99833.06
2023-02-01T11:55:36.867Z,99830.31
2023-02-01T11:58:40.905Z,99826.00
2023-02-01T12:01:27.406Z,99812.63
2023-02-01T12:04:15.164Z,99826.00
2023-02-01T12:07:06.615Z,99809.97
2023-02-01T12:10:11.732Z,99807.25
2023-02-01T12:12:45.542Z,99802.00
2023-02-01T12:15:48.601Z,99810.37
2023-02-01T12:18:24.022Z,99818.31
2023-02-01T12:21:27.785Z,99829.03
2023-02-01T12:23:54.481Z,99830.19
2023-02-01T12:26:44.138Z,99830.41
2023-02-01T12:29:21.944Z,99835.19
2023-02-01T12:32:04.029Z,99838.28
2023-02-01T12:34:57.434Z,99842.81
2023-02-01T12:37:33.050Z,99837.09
2023-02-01T12:40:39.403Z,99845.62
2023-02-01T12:43:16.323Z,99851.44
2023-02-01T12:46:04.943Z,99841.41
2023-02-01T12:49:26.672Z,99848.44
2023-02-01T12:51:59.764Z,99831.69
2023-02-01T12:54:38.407Z,99818.25
2023-02-01T12:57:12.171Z,99818.63
2023-02-01T12:59:50.912Z,99831.13
2023-02-01T13:02:22.203Z,99815.16
2023-02-01T13:04:54.670Z,99809.03
2023-02-01T13:07:30.459Z,99809.44
2023-02-01T13:10:47.215Z,99801.00
2023-02-01T13:13:23.483Z,99788.47
2023-02-01T13:16:19.321Z,99789.28
2023-02-01T13:18:51.582Z,99782.38
2023-02-01T13:21:25.055Z,99779.50
2023-02-01T13:23:53.302Z,99778.78
2023-02-01T13:27:10.000Z,99771.34
2023-02-01T13:30:13.049Z,99774.03
2023-02-01T13:33:53.514Z,99769.81
2023-02-01T13:36:57.717Z,99759.75
2023-02-01T13:39:50.189Z,99754.09
2023-02-01T13:42:27.757Z,99759.28
2023-02-01T13:44:59.374Z,99761.09
2023-02-01T13:47:31.025Z,99758.50
2023-02-01T13:50:02.624Z,99762.13
2023-02-01T13:52:40.349Z,99777.97
2023-02-01T13:55:22.071Z,99777.63
2023-02-01T13:57:51.727Z,99780.59
2023-02-01T14:00:31.481Z,99772.94
2023-02-01T14:03:01.179Z,99777.53
2023-02-01T14:05:27.654Z,99789.38
2023-02-01T14:08:13.833Z,99785.84
2023-02-01T14:10:46.491Z,99782.56
2023-02-01T14:13:22.962Z,99767.13
2023-02-01T14:16:05.032Z,99765.09
2023-02-01T14:18:34.720Z,99761.22
2023-02-01T14:21:23.559Z,99757.63
2023-02-01T14:24:03.066Z,99746.09
2023-02-01T14:26:35.856Z,99750.50
2023-02-01T14:29:21.759Z,99754.81
2023-02-01T14:32:11.843Z,99766.28
2023-02-01T14:34:47.684Z,99774.38
2023-02-01T14:37:21.754Z,99770.28
2023-02-01T14:40:01.861Z,99746.31
2023-02-01T14:42:37.081Z,99769.91
2023-02-01T14:45:25.945Z,99771.50
2023-02-01T14:48:08.252Z,99776.75
2023-02-01T14:50:43.185Z,99776.75
2023-02-01T14:53:09.796Z,99775.81
2023-02-01T14:55:50.283Z,99777.12
2023-02-01T14:58:35.503Z,99768.66
2023-02-01T15:01:16.161Z,99774.56
2023-02-01T15:03:51.827Z,99764.13
2023-02-01T15:06:34.766Z,99763.88
2023-02-01T15:09:10.709Z,99773.91
2023-02-01T15:12:15.720Z,99778.59
2023-02-01T15:14:49.856Z,99765.25
2023-02-01T15:17:21.635Z,99764.87
2023-02-01T15:19:59.914Z,99763.09
2023-02-01T15:22:28.807Z,99761.62
2023-02-01T15:24:58.271Z,99750.16
2023-02-01T15:27:25.483Z,99753.72
2023-02-01T15:30:23.320Z,99754.63
2023-02-01T15:32:50.811Z,99762.56
2023-02-01T15:35:38.764Z,99756.69
2023-02-01T15:38:24.414Z,99754.69
2023-02-01T15:41:44.934Z,99762.31
2023-02-01T15:44:50.821Z,99765.75
2023-02-01T15:47:21.004Z,99771.44
2023-02-01T15:49:53.169Z,99771.66
2023-02-01T15:52:37.369Z,99774.13
2023-02-01T18:46:35.248Z,99800.16
2023-02-01T19:22:34.487Z,99773.69
2023-02-01T19:25:01.171Z,99757.31
2023-02-01T19:27:27.943Z,99760.16
2023-02-01T19:30:37.079Z,99753.62
2023-02-01T19:33:34.979Z,99749.19
2023-02-01T19:36:21.538Z,99752.97
2023-02-01T19:38:48.173Z,99743.16
2023-02-01T19:41:14.772Z,99743.41
2023-02-01T19:43:41.440Z,99724.97
2023-02-01T19:46:08.333Z,99741.03
2023-02-01T19:48:35.057Z,99739.47
2023-02-01T19:51:02.136Z,99741.25
2023-02-01T19:53:29.457Z,99740.03
2023-02-01T19:55:58.176Z,99730.53
2023-02-01T19:58:26.146Z,99739.72
2023-02-01T20:00:55.532Z,99737.56
2023-02-01T20:03:23.659Z,99743.88
2023-02-01T20:05:52.243Z,99748.63
2023-02-01T20:08:19.438Z,99739.78
2023-02-01T20:10:46.473Z,99745.94
2023-02-01T20:13:13.803Z,99742.37
2023-02-01T20:15:42.112Z,99743.22
2023-02-01T20:18:09.148Z,99743.88
2023-02-01T20:20:35.806Z,99743.50
2023-02-01T20:23:02.866Z,99746.31
2023-02-01T20:25:29.435Z,99735.94
2023-02-01T20:27:56.880Z,99725.03
2023-02-01T20:30:23.689Z,99731.75
2023-02-01T20:32:50.949Z,99740.91
2023-02-01T20:35:19.063Z,99747.31
2023-02-01T20:37:45.678Z,99758.16
2023-02-01T20:40:12.828Z,99763.47
2023-02-01T20:42:40.664Z,99762.75
2023-02-01T20:45:07.777Z,99766.50
2023-02-01T20:47:34.560Z,99768.69
2023-02-01T20:50:01.202Z,99772.16
2023-02-01T20:52:27.761Z,99783.84
2023-02-01T20:54:54.307Z,99799.81
2023-02-01T20:57:20.878Z,99797.09
2023-02-01T20:59:49.271Z,99806.28
2023-02-01T21:02:15.975Z,99809.44
2023-02-01T21:04:42.636Z,99824.81
2023-02-01T21:07:09.241Z,99777.59
2023-02-01T21:09:35.941Z,99808.38
2023-02-01T21:12:03.576Z,99803.53
2023-02-01T21:14:30.348Z,99810.50
2023-02-01T21:16:56.983Z,99804.16
2023-02-01T21:21:58.826Z,99811.16
2023-02-01T21:24:25.410Z,99788.94
2023-02-01T21:26:52.061Z,99781.13
2023-02-01T21:29:18.802Z,99777.06
2023-02-01T21:31:45.422Z,99782.84
2023-02-01T21:34:34.357Z,99780.84
2023-02-01T21:37:10.027Z,99779.66
2023-02-01T21:40:01.167Z,99778.78
2023-02-01T21:42:28.615Z,99775.25
2023-02-01T21:44:55.271Z,99780.50
2023-02-01T21:47:26.014Z,99787.06
2023-02-01T21:49:53.589Z,99791.47
2023-02-01T21:52:20.644Z,99800.34
2023-02-01T21:54:47.414Z,99796.97
2023-02-01T21:57:13.991Z,99796.16
2023-02-01T21:59:42.335Z,99790.22
2023-02-01T22:02:16.880Z,99790.63
2023-02-01T22:04:44.448Z,99792.72
2023-02-01T22:07:11.911Z,99793.81
2023-02-01T22:09:38.833Z,99782.31
2023-02-01T22:12:05.570Z,99765.44
2023-02-01T22:14:33.386Z,99761.25
2023-02-01T22:17:00.713Z,99745.81
2023-02-01T22:19:27.324Z,99742.31
2023-02-01T22:21:53.906Z,99738.72
2023-02-01T22:24:31.295Z,99721.97
2023-02-01T22:28:32.411Z,99732.81
2023-02-01T22:31:01.786Z,99723.12
2023-02-01T22:33:28.791Z,99730.69
2023-02-01T22:35:55.422Z,99733.06
2023-02-01T22:38:22.512Z,99729.47
2023-02-01T22:40:55.939Z,99731.69
2023-02-01T22:46:02.845Z,99739.34
2023-02-01T22:48:30.703Z,99736.84
2023-02-01T22:50:58.452Z,99735.91
2023-02-01T22:53:25.286Z,99732.88
2023-02-01T22:55:52.087Z,99736.13
2023-02-01T22:58:27.903Z,99736.44
2023-02-01T23:01:19.310Z,99736.72
2023-02-01T23:03:59.526Z,99725.97
2023-02-01T23:06:26.808Z,99724.06
2023-02-01T23:09:02.011Z,99710.22
2023-02-01T23:11:29.002Z,99703.66
2023-02-01T23:14:12.011Z,99695.56
2023-02-01T23:16:39.482Z,99696.25
2023-02-01T23:19:06.404Z,99693.84
2023-02-01T23:21:33.512Z,99703.41
2023-02-01T23:24:01.906Z,99705.81
2023-02-01T23:26:30.839Z,99718.97
2023-02-01T23:28:58.470Z,99725.25
2023-02-01T23:31:30.814Z,99712.56
2023-02-01T23:33:59.524Z,99703.44
2023-02-01T23:36:28.305Z,99684.34
2023-02-01T23:38:55.252Z,99682.53
2023-02-01T23:41:23.168Z,99678.31
2023-02-01T23:44:00.988Z,99669.06
2023-02-01T23:46:51.580Z,99678.31
